Crane, Texas
Current Conditions -  °F | °C
As of 12:53 PM on Tuesday 21 Oct 2014 (Local Time) from KODO Reporting Station
Scattered Clouds Scattered Clouds  
Wind Chill: 22°   Ceiling: Unl
Heat Index: 22°   Visibility: 10mi
Dew Point: 14°   Wind: 13mph
Humidity: 61%   Direction: 180°S
Pressure: 30.12"   Gusts: NA
Location:  31.4°N, 102.35°W
Report Text: KODO 211753Z AUTO 18011KT 10SM SCT026 SCT037 22/14 A3012 RMK AO2 SLP162 T02170139 10217 20144 58006
Loading
Personal Weather Stations






























Interactive Weather Map
Tropical Storm Tracking
New forecast layout! Learn more

10-Day Weather Forecast

Advertisements
Track Severe Weather on mobile